Time;durP1;ratioP1;P1;durP2;ratioP2;P2;SDS_P1;SDS_P2;PMS_P1;PMS_P2;Temp;Humidity;BMP_temperature;BMP_pressure;BME280_temperature;BME280_humidity;BME280_pressure;Samples;Min_cycle;Max_cycle;Signal;HPM_P1;HPM_P2
2022/02/06 00:02:16;;;;;;;8.68;1.67;;;;;;;;;;4998299;28;20080;-57
2022/02/06 00:04:45;;;;;;;9.27;1.67;;;;;;;;;;5005881;28;20109;-56
2022/02/06 00:07:12;;;;;;;13.45;2.03;;;;;;;;;;5001156;28;20157;-56
2022/02/06 00:09:39;;;;;;;18.33;3.58;;;;;;;;;;4986440;28;20121;-56
2022/02/06 00:12:07;;;;;;;11.20;2.00;;;;;;;;;;4985155;28;20086;-58
2022/02/06 00:14:35;;;;;;;15.50;2.10;;;;;;;;;;5019918;28;20054;-58
2022/02/06 00:17:02;;;;;;;13.60;1.90;;;;;;;;;;5009246;28;20054;-54
2022/02/06 00:19:29;;;;;;;23.90;2.35;;;;;;;;;;4988757;28;20061;-58
2022/02/06 00:21:56;;;;;;;4.78;1.70;;;;;;;;;;4991152;28;20058;-56
2022/02/06 00:24:30;;;;;;;12.63;2.28;;;;;;;;;;5000887;28;20049;-51
2022/02/06 00:27:03;;;;;;;7.25;1.92;;;;;;;;;;5025464;28;20041;-58
2022/02/06 00:29:41;;;;;;;12.63;2.45;;;;;;;;;;4988267;28;20055;-56
2022/02/06 00:32:19;;;;;;;5.20;1.55;;;;;;;;;;4989318;28;20062;-57
2022/02/06 00:40:10;;;;;;;12.15;2.17;;;;;;;;;;5001696;28;20058;-59
2022/02/06 00:42:38;;;;;;;9.80;1.77;;;;;;;;;;5008373;28;20054;-57
2022/02/06 00:45:07;;;;;;;9.90;1.73;;;;;;;;;;5002853;28;20131;-58
2022/02/06 00:47:33;;;;;;;7.95;1.98;;;;;;;;;;5008914;28;20054;-56
2022/02/06 00:50:00;;;;;;;8.02;1.63;;;;;;;;;;5005072;28;20046;-60
2022/02/06 00:52:33;;;;;;;11.32;1.75;;;;;;;;;;5010850;28;20122;-60
2022/02/06 00:55:00;;;;;;;5.63;1.90;;;;;;;;;;4990079;28;20112;-57
2022/02/06 00:57:29;;;;;;;8.25;2.20;;;;;;;;;;5005395;28;20058;-57
2022/02/06 00:59:55;;;;;;;14.55;2.25;;;;;;;;;;5009130;28;20058;-54
2022/02/06 01:02:24;;;;;;;9.15;2.45;;;;;;;;;;5025075;28;20062;-56
2022/02/06 01:04:50;;;;;;;9.95;2.20;;;;;;;;;;5002958;28;20058;-59
2022/02/06 01:07:16;;;;;;;12.75;2.65;;;;;;;;;;5007731;28;20123;-58
2022/02/06 01:09:43;;;;;;;6.50;1.77;;;;;;;;;;5002112;28;20050;-58
2022/02/06 01:12:11;;;;;;;13.95;2.30;;;;;;;;;;5024750;28;20113;-56
2022/02/06 01:14:48;;;;;;;12.32;2.33;;;;;;;;;;5001093;28;20116;-57
2022/02/06 01:17:24;;;;;;;8.05;2.15;;;;;;;;;;5024055;28;20064;-59
2022/02/06 01:19:59;;;;;;;11.50;2.20;;;;;;;;;;5002247;28;20065;-56
2022/02/06 01:22:29;;;;;;;9.55;1.90;;;;;;;;;;5024135;28;20057;-58
2022/02/06 01:25:02;;;;;;;11.18;2.28;;;;;;;;;;4999265;28;20056;-58
2022/02/06 01:27:38;;;;;;;9.88;2.15;;;;;;;;;;5016819;28;20045;-54
2022/02/06 01:30:14;;;;;;;11.93;2.15;;;;;;;;;;5001883;28;20050;-58
2022/02/06 01:32:49;;;;;;;12.18;2.00;;;;;;;;;;5021977;28;20069;-59
2022/02/06 01:35:26;;;;;;;7.20;2.17;;;;;;;;;;5001114;28;20058;-57
2022/02/06 01:38:00;;;;;;;11.02;1.88;;;;;;;;;;5022486;28;20080;-55
2022/02/06 01:40:40;;;;;;;10.70;1.50;;;;;;;;;;5001392;28;20054;-59
2022/02/06 01:43:11;;;;;;;13.15;2.03;;;;;;;;;;5003902;28;20073;-59
2022/02/06 01:46:00;;;;;;;9.98;2.08;;;;;;;;;;4998877;28;20181;-56
2022/02/06 02:02:31;;;;;;;9.10;1.90;;;;;;;;;;5017129;28;20046;-58
2022/02/06 02:05:33;;;;;;;6.55;1.70;;;;;;;;;;5006372;28;20073;-59
2022/02/06 02:11:02;;;;;;;7.67;1.50;;;;;;;;;;4983809;28;20050;-58
2022/02/06 02:13:46;;;;;;;6.72;1.70;;;;;;;;;;4997828;28;20044;-58
2022/02/06 02:16:42;;;;;;;5.78;1.70;;;;;;;;;;5007004;28;20054;-59
2022/02/06 02:22:37;;;;;;;7.25;1.38;;;;;;;;;;4947816;28;20102;-59
2022/02/06 02:25:26;;;;;;;;;;;;;;;;;;5006394;28;20058;-58
2022/02/06 02:28:22;;;;;;;5.55;1.33;;;;;;;;;;5002568;28;20023;-60
2022/02/06 02:31:07;;;;;;;8.25;1.65;;;;;;;;;;4987190;28;20354;-59
2022/02/06 02:47:16;;;;;;;8.60;1.83;;;;;;;;;;4986246;28;20046;-58
2022/02/06 02:49:50;;;;;;;8.70;1.70;;;;;;;;;;4981914;28;20054;-59
2022/02/06 02:52:26;;;;;;;8.55;1.92;;;;;;;;;;4986635;28;20141;-59
2022/02/06 02:55:11;;;;;;;3.55;1.45;;;;;;;;;;4995961;28;20050;-58
2022/02/06 02:57:45;;;;;;;6.32;2.13;;;;;;;;;;5004838;28;20451;-56
2022/02/06 03:03:35;;;;;;;9.40;2.03;;;;;;;;;;4997733;28;20068;-54
2022/02/06 03:06:03;;;;;;;7.50;1.85;;;;;;;;;;5006182;28;20076;-55
2022/02/06 03:08:32;;;;;;;10.15;2.10;;;;;;;;;;5006863;28;20053;-55
2022/02/06 03:11:04;;;;;;;8.02;1.80;;;;;;;;;;5006352;28;20061;-56
2022/02/06 03:13:37;;;;;;;5.50;2.00;;;;;;;;;;5006539;28;20045;-54
2022/02/06 03:16:16;;;;;;;9.80;2.47;;;;;;;;;;4989906;28;20060;-53
2022/02/06 03:18:48;;;;;;;10.30;2.00;;;;;;;;;;4990537;28;20058;-56
2022/02/06 03:21:19;;;;;;;10.07;1.90;;;;;;;;;;5006972;28;20050;-56
2022/02/06 03:23:50;;;;;;;7.10;1.83;;;;;;;;;;5009298;28;20053;-54
2022/02/06 03:26:19;;;;;;;14.27;2.00;;;;;;;;;;5010826;28;20065;-56
2022/02/06 03:28:46;;;;;;;9.02;2.08;;;;;;;;;;5010500;28;20058;-57
2022/02/06 03:31:14;;;;;;;9.50;1.80;;;;;;;;;;5010724;28;20134;-55
2022/02/06 03:33:40;;;;;;;7.88;1.77;;;;;;;;;;5012308;28;20184;-55
2022/02/06 03:36:07;;;;;;;6.60;1.70;;;;;;;;;;5010083;28;20125;-55
2022/02/06 03:38:34;;;;;;;4.20;1.42;;;;;;;;;;5008374;28;20501;-55
2022/02/06 03:41:06;;;;;;;4.60;1.60;;;;;;;;;;5010319;28;20494;-58
2022/02/06 03:43:41;;;;;;;7.10;1.73;;;;;;;;;;5009924;28;20513;-53
2022/02/06 03:46:11;;;;;;;5.38;1.70;;;;;;;;;;4993670;28;20112;-58
2022/02/06 03:48:46;;;;;;;3.78;1.42;;;;;;;;;;5010200;28;20073;-58
2022/02/06 03:51:19;;;;;;;8.70;1.70;;;;;;;;;;5010693;28;20140;-54
2022/02/06 03:53:46;;;;;;;3.92;1.70;;;;;;;;;;5009960;28;20081;-57
2022/02/06 03:56:13;;;;;;;6.93;1.67;;;;;;;;;;5009906;28;20069;-53
2022/02/06 03:58:41;;;;;;;6.30;1.80;;;;;;;;;;5010208;28;20049;-59
2022/02/06 04:03:39;;;;;;;4.35;1.23;;;;;;;;;;5015219;23;20070;-59
2022/02/06 04:06:05;;;;;;;4.90;1.60;;;;;;;;;;5005760;28;20069;-56
2022/02/06 04:08:34;;;;;;;5.55;1.38;;;;;;;;;;4996895;28;20065;-59
2022/02/06 04:11:04;;;;;;;;;;;;;;;;;;4996278;28;20141;-58
2022/02/06 04:13:34;;;;;;;7.65;2.08;;;;;;;;;;4992867;28;20027;-58
2022/02/06 04:16:04;;;;;;;11.32;2.00;;;;;;;;;;5014315;28;20058;-56
2022/02/06 04:18:40;;;;;;;5.00;1.60;;;;;;;;;;4991833;28;20149;-58
2022/02/06 04:21:07;;;;;;;6.47;1.88;;;;;;;;;;4993744;28;20572;-53
2022/02/06 04:23:33;;;;;;;10.38;1.30;;;;;;;;;;4991015;28;20057;-57
2022/02/06 04:26:00;;;;;;;6.45;1.70;;;;;;;;;;4999327;28;20128;-52
2022/02/06 04:28:26;;;;;;;6.30;1.80;;;;;;;;;;4991467;28;20057;-59
2022/02/06 04:30:54;;;;;;;4.00;1.35;;;;;;;;;;4996448;28;20046;-56
2022/02/06 04:33:23;;;;;;;5.00;1.63;;;;;;;;;;4996327;28;20046;-57
2022/02/06 04:35:52;;;;;;;5.38;1.35;;;;;;;;;;4998269;28;20058;-59
2022/02/06 04:38:39;;;;;;;6.40;1.50;;;;;;;;;;4997743;28;20088;-58
2022/02/06 04:41:19;;;;;;;8.38;1.65;;;;;;;;;;4988822;28;20423;-56
2022/02/06 05:16:44;;;;;;;7.43;1.30;;;;;;;;;;4993950;28;20048;-58
2022/02/06 05:25:04;;;;;;;10.50;1.27;;;;;;;;;;4993427;28;20110;-54
2022/02/06 05:27:50;;;;;;;6.55;1.38;;;;;;;;;;5006585;28;20053;-51
2022/02/06 05:30:20;;;;;;;14.57;1.50;;;;;;;;;;5000057;28;20127;-56
2022/02/06 05:32:58;;;;;;;12.77;1.30;;;;;;;;;;5007295;28;20054;-58
2022/02/06 05:35:24;;;;;;;10.23;1.73;;;;;;;;;;5000350;28;20058;-59
2022/02/06 05:37:52;;;;;;;7.68;1.60;;;;;;;;;;5007516;28;20084;-55
2022/02/06 05:40:19;;;;;;;11.37;1.80;;;;;;;;;;4991095;28;20054;-56
2022/02/06 05:42:45;;;;;;;12.23;1.42;;;;;;;;;;4987856;28;20309;-56
2022/02/06 05:45:12;;;;;;;10.27;1.75;;;;;;;;;;4981030;28;20068;-56
2022/02/06 05:47:39;;;;;;;14.93;1.75;;;;;;;;;;4987776;28;20058;-56
2022/02/06 05:50:06;;;;;;;7.65;1.25;;;;;;;;;;4990343;28;20140;-59
2022/02/06 05:52:34;;;;;;;10.18;2.03;;;;;;;;;;5007467;28;20136;-56
2022/02/06 05:55:02;;;;;;;13.82;1.90;;;;;;;;;;5000800;28;20101;-59
2022/02/06 05:57:28;;;;;;;12.68;1.52;;;;;;;;;;5007309;28;20054;-58
2022/02/06 05:59:55;;;;;;;11.77;1.70;;;;;;;;;;5000228;28;20058;-59
2022/02/06 06:02:21;;;;;;;9.43;1.60;;;;;;;;;;4987024;28;20132;-59
2022/02/06 06:04:48;;;;;;;8.55;1.50;;;;;;;;;;4986743;28;20062;-56
2022/02/06 06:07:15;;;;;;;18.88;1.80;;;;;;;;;;4983096;28;20070;-58
2022/02/06 06:09:41;;;;;;;7.32;1.55;;;;;;;;;;4987345;28;20126;-57
2022/02/06 06:12:11;;;;;;;13.50;1.95;;;;;;;;;;4982688;28;20496;-59
2022/02/06 06:14:39;;;;;;;13.07;1.48;;;;;;;;;;4987652;28;20054;-60
2022/02/06 06:17:06;;;;;;;10.23;1.83;;;;;;;;;;4995443;28;20061;-59
2022/02/06 06:19:34;;;;;;;11.85;1.85;;;;;;;;;;5006102;28;20053;-60
2022/02/06 06:22:05;;;;;;;6.38;1.65;;;;;;;;;;5000805;28;20482;-57
2022/02/06 06:24:34;;;;;;;9.07;1.70;;;;;;;;;;5000515;28;20049;-59
2022/02/06 06:27:01;;;;;;;13.45;1.48;;;;;;;;;;4991794;28;20053;-58
2022/02/06 06:29:29;;;;;;;9.48;1.50;;;;;;;;;;5007069;28;20053;-60
2022/02/06 06:31:55;;;;;;;7.30;1.63;;;;;;;;;;5000867;28;20050;-56
2022/02/06 06:34:22;;;;;;;11.07;1.63;;;;;;;;;;5006355;28;20085;-59
2022/02/06 06:36:50;;;;;;;12.57;1.67;;;;;;;;;;4995773;28;20050;-55
2022/02/06 06:39:22;;;;;;;10.67;1.30;;;;;;;;;;4987317;28;20061;-56
2022/02/06 06:41:49;;;;;;;14.32;1.70;;;;;;;;;;4982392;28;20053;-57
2022/02/06 06:44:15;;;;;;;12.98;1.95;;;;;;;;;;4988176;28;20064;-55
2022/02/06 06:46:43;;;;;;;9.75;1.90;;;;;;;;;;4985615;28;20042;-59
2022/02/06 06:49:10;;;;;;;13.30;1.50;;;;;;;;;;5008513;28;20082;-57
2022/02/06 06:51:36;;;;;;;13.07;1.83;;;;;;;;;;5006511;28;20374;-57
2022/02/06 06:54:11;;;;;;;12.85;1.85;;;;;;;;;;4982802;28;20058;-59
2022/02/06 06:56:44;;;;;;;9.20;1.42;;;;;;;;;;4985632;28;20061;-59
2022/02/06 06:59:26;;;;;;;6.03;1.40;;;;;;;;;;4980438;28;20089;-57
2022/02/06 07:02:15;;;;;;;9.02;1.80;;;;;;;;;;4986724;28;20114;-57
2022/02/06 07:04:41;;;;;;;15.25;1.55;;;;;;;;;;4985922;28;20065;-55
2022/02/06 07:07:08;;;;;;;12.63;2.13;;;;;;;;;;4986136;28;20046;-53
2022/02/06 07:09:34;;;;;;;5.15;1.40;;;;;;;;;;4998131;28;20128;-57
2022/02/06 07:12:01;;;;;;;10.13;1.63;;;;;;;;;;5006249;28;20049;-53
2022/02/06 07:14:27;;;;;;;7.45;1.40;;;;;;;;;;4998957;28;20054;-57
2022/02/06 07:16:55;;;;;;;8.75;1.67;;;;;;;;;;5005810;28;20054;-53
2022/02/06 07:19:22;;;;;;;8.73;1.70;;;;;;;;;;4987110;28;20058;-56
2022/02/06 07:21:49;;;;;;;7.15;1.63;;;;;;;;;;4986534;28;20064;-54
2022/02/06 07:24:17;;;;;;;7.45;1.33;;;;;;;;;;4981485;28;20050;-53
2022/02/06 07:26:46;;;;;;;8.75;1.55;;;;;;;;;;4986779;28;20054;-52
2022/02/06 07:29:16;;;;;;;12.98;1.30;;;;;;;;;;4988830;28;20054;-56
2022/02/06 07:31:46;;;;;;;7.63;1.30;;;;;;;;;;5005933;28;20074;-53
2022/02/06 07:34:14;;;;;;;14.65;1.98;;;;;;;;;;5000143;28;20139;-55
2022/02/06 07:36:40;;;;;;;5.78;1.35;;;;;;;;;;5002653;28;20049;-55
2022/02/06 07:39:07;;;;;;;14.35;1.63;;;;;;;;;;4981800;28;20050;-54
2022/02/06 07:41:35;;;;;;;7.00;1.63;;;;;;;;;;4987370;28;20055;-59
2022/02/06 07:44:01;;;;;;;6.43;1.58;;;;;;;;;;4985089;28;20054;-53
2022/02/06 07:46:37;;;;;;;3.75;1.23;;;;;;;;;;5006675;28;20054;-60
2022/02/06 07:49:05;;;;;;;9.82;1.67;;;;;;;;;;5000582;28;20073;-53
2022/02/06 07:51:35;;;;;;;6.88;1.33;;;;;;;;;;4986308;28;20057;-59
2022/02/06 07:54:01;;;;;;;7.53;1.70;;;;;;;;;;4985602;28;20086;-55
2022/02/06 07:56:28;;;;;;;12.40;1.70;;;;;;;;;;4998595;28;20076;-58
2022/02/06 07:58:54;;;;;;;2.85;1.17;;;;;;;;;;5005378;28;20050;-56
2022/02/06 08:01:22;;;;;;;4.47;1.38;;;;;;;;;;4984830;28;20104;-55
2022/02/06 08:03:48;;;;;;;8.67;1.90;;;;;;;;;;4947481;29;20043;-56
2022/02/06 08:06:15;;;;;;;11.68;1.85;;;;;;;;;;4955042;28;20150;-54
2022/02/06 08:08:43;;;;;;;13.40;1.90;;;;;;;;;;4967297;28;20141;-56
2022/02/06 08:11:14;;;;;;;11.85;1.83;;;;;;;;;;4964505;28;20063;-55
2022/02/06 08:13:43;;;;;;;9.55;1.90;;;;;;;;;;4970803;28;20134;-55
2022/02/06 08:16:10;;;;;;;9.05;1.92;;;;;;;;;;4972390;28;20059;-56
2022/02/06 08:18:40;;;;;;;6.35;1.48;;;;;;;;;;4970126;28;20061;-58
2022/02/06 08:21:06;;;;;;;8.88;1.50;;;;;;;;;;4947971;28;20083;-57
2022/02/06 08:23:33;;;;;;;9.65;2.58;;;;;;;;;;4950385;28;20110;-53
2022/02/06 08:26:01;;;;;;;10.63;2.60;;;;;;;;;;4949975;28;20171;-56
2022/02/06 08:28:28;;;;;;;12.60;1.63;;;;;;;;;;4951633;28;20101;-56
2022/02/06 08:30:55;;;;;;;8.60;1.52;;;;;;;;;;4956691;28;20174;-54
2022/02/06 08:33:21;;;;;;;8.80;1.48;;;;;;;;;;4960993;28;20062;-55
2022/02/06 08:35:49;;;;;;;12.32;1.40;;;;;;;;;;4956974;28;20066;-55
2022/02/06 08:38:15;;;;;;;6.47;1.60;;;;;;;;;;4956365;28;20145;-56
2022/02/06 08:40:43;;;;;;;15.75;1.73;;;;;;;;;;4956564;28;20068;-56
2022/02/06 08:43:11;;;;;;;5.90;1.45;;;;;;;;;;4948227;28;20055;-54
2022/02/06 08:45:38;;;;;;;7.88;1.67;;;;;;;;;;4959008;28;20512;-54
2022/02/06 08:48:05;;;;;;;5.70;1.60;;;;;;;;;;4968398;28;20062;-52
2022/02/06 08:50:34;;;;;;;7.00;2.30;;;;;;;;;;4978037;28;20061;-55
2022/02/06 08:53:01;;;;;;;8.75;2.08;;;;;;;;;;4971786;28;20051;-54
2022/02/06 08:55:28;;;;;;;7.25;1.95;;;;;;;;;;4961584;28;20059;-52
2022/02/06 08:57:56;;;;;;;5.25;2.00;;;;;;;;;;4957058;28;20150;-55
2022/02/06 09:00:25;;;;;;;14.38;3.10;;;;;;;;;;4964466;28;20518;-56
2022/02/06 09:02:53;;;;;;;5.03;2.03;;;;;;;;;;4974161;28;20057;-57
2022/02/06 09:05:22;;;;;;;8.27;2.00;;;;;;;;;;4998357;28;20096;-56
2022/02/06 09:07:48;;;;;;;7.43;1.70;;;;;;;;;;4994147;28;20058;-59
2022/02/06 09:10:21;;;;;;;6.68;1.60;;;;;;;;;;4999215;28;20058;-58
2022/02/06 09:12:57;;;;;;;6.45;1.65;;;;;;;;;;4992835;28;20050;-55
2022/02/06 09:15:25;;;;;;;5.10;1.55;;;;;;;;;;4979106;28;20096;-56
2022/02/06 09:18:00;;;;;;;4.00;1.50;;;;;;;;;;4986274;28;20060;-57
2022/02/06 09:20:32;;;;;;;4.60;1.67;;;;;;;;;;4989980;28;20407;-59
2022/02/06 09:22:59;;;;;;;6.18;1.80;;;;;;;;;;4970847;28;20137;-60
2022/02/06 09:25:25;;;;;;;6.95;1.48;;;;;;;;;;4977414;28;20096;-54
2022/02/06 09:27:52;;;;;;;9.52;1.70;;;;;;;;;;5008573;28;20061;-56
2022/02/06 09:30:25;;;;;;;7.97;1.60;;;;;;;;;;4999819;28;20284;-57
2022/02/06 09:37:50;;;;;;;4.45;1.30;;;;;;;;;;4993554;28;20053;-56
2022/02/06 09:40:17;;;;;;;2.60;1.20;;;;;;;;;;4991661;28;20452;-56
2022/02/06 09:42:44;;;;;;;5.75;1.42;;;;;;;;;;4996106;28;20110;-56
2022/02/06 09:45:12;;;;;;;6.47;1.70;;;;;;;;;;5009804;28;20112;-55
2022/02/06 09:47:38;;;;;;;7.47;1.27;;;;;;;;;;5005246;28;20311;-52
2022/02/06 09:50:07;;;;;;;6.10;1.42;;;;;;;;;;5012105;28;20113;-55
2022/02/06 09:52:34;;;;;;;;;;;;;;;;;;4996254;28;20062;-57
2022/02/06 09:55:05;;;;;;;7.53;1.73;;;;;;;;;;4991886;28;19980;-57
2022/02/06 09:57:40;;;;;;;4.50;1.17;;;;;;;;;;4999838;28;20057;-56
2022/02/06 10:00:08;;;;;;;2.65;0.98;;;;;;;;;;4986432;28;20152;-57
2022/02/06 10:02:37;;;;;;;8.27;1.30;;;;;;;;;;5019894;28;20058;-54
2022/02/06 10:05:03;;;;;;;5.70;1.00;;;;;;;;;;5010776;28;20054;-56
2022/02/06 10:07:38;;;;;;;3.38;1.30;;;;;;;;;;4998405;28;20065;-57
2022/02/06 10:10:05;;;;;;;3.08;1.20;;;;;;;;;;4990577;28;20054;-54
2022/02/06 10:12:36;;;;;;;7.03;1.40;;;;;;;;;;4998609;28;20057;-57
2022/02/06 10:15:04;;;;;;;4.45;1.63;;;;;;;;;;5008230;28;20053;-59
2022/02/06 10:17:30;;;;;;;10.25;1.40;;;;;;;;;;5014633;28;20116;-56
2022/02/06 10:19:58;;;;;;;4.82;1.40;;;;;;;;;;4991708;28;20050;-58
2022/02/06 10:22:27;;;;;;;6.07;2.53;;;;;;;;;;4999084;28;20058;-56
2022/02/06 10:24:53;;;;;;;;;;;;;;;;;;4996802;28;20154;-56
2022/02/06 10:27:22;;;;;;;4.82;0.95;;;;;;;;;;4990210;28;19933;-59
2022/02/06 10:29:56;;;;;;;4.63;1.13;;;;;;;;;;4995671;28;20054;-56
2022/02/06 10:32:24;;;;;;;3.78;1.10;;;;;;;;;;5002388;28;20054;-59
2022/02/06 10:34:50;;;;;;;3.95;1.45;;;;;;;;;;4993082;28;20058;-59
2022/02/06 10:37:18;;;;;;;9.63;1.30;;;;;;;;;;4987774;28;20060;-57
2022/02/06 10:39:52;;;;;;;2.03;1.10;;;;;;;;;;4994365;28;20062;-56
2022/02/06 10:42:21;;;;;;;2.80;1.13;;;;;;;;;;5007192;28;20061;-55
2022/02/06 10:44:49;;;;;;;3.40;1.00;;;;;;;;;;5016140;28;20057;-57
2022/02/06 10:47:17;;;;;;;2.83;1.03;;;;;;;;;;4987340;28;20049;-55
2022/02/06 10:49:43;;;;;;;1.50;0.82;;;;;;;;;;5002335;28;20061;-60
2022/02/06 10:52:12;;;;;;;3.88;0.85;;;;;;;;;;4993515;28;20109;-57
2022/02/06 10:54:39;;;;;;;3.63;0.95;;;;;;;;;;4997080;28;20053;-58
2022/02/06 10:57:07;;;;;;;2.42;0.90;;;;;;;;;;5011187;28;20054;-58
2022/02/06 10:59:44;;;;;;;11.35;3.35;;;;;;;;;;4989869;28;20058;-58
2022/02/06 11:02:18;;;;;;;3.65;1.17;;;;;;;;;;4989912;28;20175;-57
2022/02/06 11:04:54;;;;;;;2.88;0.90;;;;;;;;;;4986494;28;20062;-59
2022/02/06 11:07:21;;;;;;;7.13;1.08;;;;;;;;;;4986198;28;20143;-60
2022/02/06 11:09:48;;;;;;;3.45;1.05;;;;;;;;;;4990078;28;20085;-57
2022/02/06 11:12:16;;;;;;;4.57;1.02;;;;;;;;;;4998953;28;20049;-53
2022/02/06 11:14:48;;;;;;;3.00;0.98;;;;;;;;;;4986804;28;20078;-58
2022/02/06 11:17:19;;;;;;;3.03;1.23;;;;;;;;;;4984292;28;20053;-58
2022/02/06 11:20:02;;;;;;;4.15;1.40;;;;;;;;;;5008711;28;20056;-57
2022/02/06 11:22:29;;;;;;;2.75;0.85;;;;;;;;;;5000289;28;20085;-55
2022/02/06 11:24:56;;;;;;;3.78;1.02;;;;;;;;;;5003659;28;20061;-60
2022/02/06 11:27:22;;;;;;;12.45;4.22;;;;;;;;;;4986447;28;20073;-55
2022/02/06 11:29:50;;;;;;;9.48;1.90;;;;;;;;;;4981453;28;20100;-56
2022/02/06 11:32:19;;;;;;;2.40;0.85;;;;;;;;;;4984165;28;20050;-56
2022/02/06 11:34:46;;;;;;;2.13;0.70;;;;;;;;;;4979315;28;20133;-57
2022/02/06 11:45:46;;;;;;;2.00;0.32;;;;;;;;;;5007203;28;20062;-56
2022/02/06 11:48:14;;;;;;;0.70;0.30;;;;;;;;;;5008780;28;20058;-57
2022/02/06 11:50:48;;;;;;;5.38;0.60;;;;;;;;;;5006728;28;20136;-57
2022/02/06 11:53:26;;;;;;;4.07;0.77;;;;;;;;;;5009292;28;20089;-56
2022/02/06 11:55:53;;;;;;;0.90;0.60;;;;;;;;;;4994937;28;20062;-57
2022/02/06 11:58:26;;;;;;;1.13;0.40;;;;;;;;;;4989472;28;20136;-54
2022/02/06 12:01:16;;;;;;;6.53;0.50;;;;;;;;;;5000355;28;20054;-58
2022/02/06 12:03:51;;;;;;;2.20;0.45;;;;;;;;;;4988068;28;20061;-55
2022/02/06 12:06:19;;;;;;;1.52;0.38;;;;;;;;;;5004557;28;20077;-59
2022/02/06 12:09:06;;;;;;;0.47;0.40;;;;;;;;;;5009568;28;20057;-53
2022/02/06 12:11:33;;;;;;;0.95;0.32;;;;;;;;;;5003512;28;20065;-56
2022/02/06 12:14:08;;;;;;;1.45;0.50;;;;;;;;;;5009893;28;20177;-55
2022/02/06 12:16:41;;;;;;;3.08;0.60;;;;;;;;;;5001307;28;20058;-56
2022/02/06 12:19:22;;;;;;;1.05;0.40;;;;;;;;;;4989666;28;20138;-56
2022/02/06 12:21:50;;;;;;;9.50;2.42;;;;;;;;;;4990089;28;20050;-58
2022/02/06 12:24:32;;;;;;;4.72;1.75;;;;;;;;;;5024870;28;20145;-59
2022/02/06 12:27:18;;;;;;;0.47;0.40;;;;;;;;;;4999248;28;20086;-59
2022/02/06 12:29:49;;;;;;;2.17;0.80;;;;;;;;;;4989767;28;20321;-57
2022/02/06 12:32:28;;;;;;;1.38;0.40;;;;;;;;;;4986097;28;21273;-53
2022/02/06 12:37:41;;;;;;;3.03;0.60;;;;;;;;;;4986743;28;20052;-56
2022/02/06 12:40:09;;;;;;;1.95;0.50;;;;;;;;;;5005292;28;20250;-57
2022/02/06 12:42:38;;;;;;;4.00;0.50;;;;;;;;;;5009756;28;20042;-60
2022/02/06 12:45:06;;;;;;;1.33;0.40;;;;;;;;;;5017612;28;20060;-57
2022/02/06 12:47:33;;;;;;;2.50;0.75;;;;;;;;;;5027946;28;20057;-53
2022/02/06 12:49:59;;;;;;;1.08;0.40;;;;;;;;;;5001923;28;20147;-57
2022/02/06 12:52:26;;;;;;;3.92;0.43;;;;;;;;;;5024758;28;20081;-58
2022/02/06 12:54:54;;;;;;;1.40;0.60;;;;;;;;;;5017407;28;20066;-57
2022/02/06 12:57:21;;;;;;;1.40;0.50;;;;;;;;;;4987987;28;20062;-58
2022/02/06 12:59:51;;;;;;;3.35;0.52;;;;;;;;;;4988730;28;20059;-55
2022/02/06 13:02:25;;;;;;;15.35;4.72;;;;;;;;;;4976503;28;20046;-58
2022/02/06 13:05:04;;;;;;;7.95;2.15;;;;;;;;;;4987788;28;20059;-56
2022/02/06 13:07:30;;;;;;;7.55;0.63;;;;;;;;;;4998660;28;20050;-56
2022/02/06 13:10:04;;;;;;;2.33;0.70;;;;;;;;;;5027576;28;20061;-54
2022/02/06 13:12:37;;;;;;;1.95;0.77;;;;;;;;;;5001068;28;20056;-57
2022/02/06 13:15:32;;;;;;;5.10;0.57;;;;;;;;;;5026728;28;20069;-57
2022/02/06 13:18:13;;;;;;;13.60;1.17;;;;;;;;;;5003192;28;20057;-56
2022/02/06 13:20:57;;;;;;;2.60;0.60;;;;;;;;;;5010614;28;20049;-54
2022/02/06 13:23:38;;;;;;;4.57;0.73;;;;;;;;;;5005346;28;20362;-57
2022/02/06 13:26:14;;;;;;;6.53;0.60;;;;;;;;;;5008741;28;20053;-56
2022/02/06 13:28:49;;;;;;;4.18;0.73;;;;;;;;;;4986116;28;20054;-54
2022/02/06 13:31:41;;;;;;;4.72;0.70;;;;;;;;;;5005897;28;20117;-55
2022/02/06 13:34:22;;;;;;;4.05;0.52;;;;;;;;;;5004720;28;20061;-55
2022/02/06 13:36:53;;;;;;;4.68;1.55;;;;;;;;;;5009503;28;20065;-53
2022/02/06 13:39:28;;;;;;;5.85;0.80;;;;;;;;;;4990692;28;20073;-55
2022/02/06 13:41:56;;;;;;;3.65;0.65;;;;;;;;;;4989581;28;20046;-58
2022/02/06 13:44:25;;;;;;;3.55;0.70;;;;;;;;;;4984989;28;20050;-55
2022/02/06 13:46:53;;;;;;;;;;;;;;;;;;4990183;28;20770;-59
2022/02/06 13:49:25;;;;;;;8.77;0.60;;;;;;;;;;4986916;28;19944;-60
2022/02/06 13:51:52;;;;;;;4.85;0.60;;;;;;;;;;4990507;28;20313;-57
2022/02/06 13:54:19;;;;;;;4.75;0.70;;;;;;;;;;4985690;28;20046;-57
2022/02/06 13:56:47;;;;;;;2.25;0.55;;;;;;;;;;4989619;28;20054;-60
2022/02/06 13:59:19;;;;;;;7.07;0.80;;;;;;;;;;4984939;28;20141;-60
2022/02/06 14:01:47;;;;;;;10.07;1.52;;;;;;;;;;4990248;28;20142;-60
2022/02/06 14:04:21;;;;;;;6.53;0.52;;;;;;;;;;4985519;28;20046;-59
2022/02/06 14:06:54;;;;;;;6.82;0.60;;;;;;;;;;4987923;28;20054;-59
2022/02/06 14:09:28;;;;;;;9.23;1.00;;;;;;;;;;4986531;28;20046;-57
2022/02/06 14:11:58;;;;;;;9.43;1.17;;;;;;;;;;5009866;28;20057;-59
2022/02/06 14:14:26;;;;;;;8.80;1.10;;;;;;;;;;5003810;28;20052;-60
2022/02/06 14:16:54;;;;;;;3.53;0.70;;;;;;;;;;5009445;28;20136;-60
2022/02/06 14:19:39;;;;;;;7.35;1.10;;;;;;;;;;5004324;28;20235;-59
2022/02/06 14:22:08;;;;;;;7.72;0.88;;;;;;;;;;5024350;28;20054;-59
2022/02/06 14:24:48;;;;;;;8.15;0.80;;;;;;;;;;5002366;28;20050;-60
2022/02/06 14:27:16;;;;;;;8.70;0.52;;;;;;;;;;4998508;28;20062;-59
2022/02/06 14:29:56;;;;;;;7.53;1.00;;;;;;;;;;4989456;28;20051;-54
2022/02/06 14:32:24;;;;;;;3.13;0.75;;;;;;;;;;4987726;28;20061;-58
2022/02/06 14:34:57;;;;;;;4.05;0.65;;;;;;;;;;4986543;28;20046;-57
2022/02/06 14:37:27;;;;;;;1.67;0.40;;;;;;;;;;4989652;28;20105;-58
2022/02/06 14:39:54;;;;;;;2.05;0.52;;;;;;;;;;4990367;28;20133;-53
2022/02/06 14:42:25;;;;;;;6.13;0.70;;;;;;;;;;5018664;28;20484;-57
2022/02/06 14:44:54;;;;;;;3.17;1.20;;;;;;;;;;5008655;28;20126;-57
2022/02/06 14:47:23;;;;;;;8.63;0.80;;;;;;;;;;4987996;28;20096;-56
2022/02/06 14:49:50;;;;;;;3.15;0.52;;;;;;;;;;4989036;28;20050;-55
2022/02/06 14:52:24;;;;;;;5.22;0.68;;;;;;;;;;4997271;28;20160;-57
2022/02/06 14:54:50;;;;;;;17.45;1.23;;;;;;;;;;5008904;28;20455;-55
2022/02/06 14:57:18;;;;;;;7.82;1.08;;;;;;;;;;4991797;28;20051;-56
2022/02/06 14:59:44;;;;;;;6.50;0.80;;;;;;;;;;4989174;28;20129;-58
2022/02/06 15:02:12;;;;;;;7.30;0.80;;;;;;;;;;4994319;28;20049;-54
2022/02/06 15:04:39;;;;;;;2.22;0.75;;;;;;;;;;5008343;28;20054;-53
2022/02/06 15:07:06;;;;;;;5.00;1.27;;;;;;;;;;4995315;28;20057;-53
2022/02/06 15:09:32;;;;;;;9.73;0.90;;;;;;;;;;4989847;28;20105;-53
2022/02/06 15:12:01;;;;;;;2.95;0.88;;;;;;;;;;4989692;28;20054;-54
2022/02/06 15:14:28;;;;;;;1.95;0.60;;;;;;;;;;5009555;28;20057;-57
2022/02/06 15:16:58;;;;;;;2.00;0.55;;;;;;;;;;5002671;28;20517;-54
2022/02/06 15:19:30;;;;;;;4.05;0.60;;;;;;;;;;5012336;28;20081;-55
2022/02/06 15:22:11;;;;;;;4.38;0.73;;;;;;;;;;5022655;28;20049;-56
2022/02/06 15:24:37;;;;;;;11.57;1.33;;;;;;;;;;5013360;28;20112;-57
2022/02/06 15:27:04;;;;;;;3.13;0.60;;;;;;;;;;4998950;28;20054;-56
2022/02/06 15:29:30;;;;;;;3.78;0.70;;;;;;;;;;4993683;28;20054;-58
2022/02/06 15:32:04;;;;;;;5.18;1.00;;;;;;;;;;5003448;28;20140;-58
2022/02/06 15:34:32;;;;;;;2.47;0.60;;;;;;;;;;5026641;28;20072;-56
2022/02/06 15:37:02;;;;;;;11.20;0.98;;;;;;;;;;5012226;28;20112;-58
2022/02/06 15:39:35;;;;;;;10.15;1.00;;;;;;;;;;4987086;28;20077;-56
2022/02/06 15:42:05;;;;;;;1.27;0.60;;;;;;;;;;4992417;28;20177;-54
2022/02/06 15:44:32;;;;;;;3.05;0.70;;;;;;;;;;5005151;28;20052;-55
2022/02/06 15:46:58;;;;;;;3.53;0.70;;;;;;;;;;5012647;28;20057;-59
2022/02/06 15:49:25;;;;;;;5.45;1.45;;;;;;;;;;5006020;28;20053;-54
2022/02/06 15:52:02;;;;;;;2.58;0.68;;;;;;;;;;5010644;28;20092;-56
2022/02/06 15:54:29;;;;;;;6.53;0.80;;;;;;;;;;4993840;28;20105;-54
2022/02/06 15:56:56;;;;;;;3.15;0.70;;;;;;;;;;4992688;28;20049;-57
2022/02/06 15:59:22;;;;;;;6.30;1.13;;;;;;;;;;4998478;28;20045;-54
2022/02/06 16:01:50;;;;;;;3.80;0.82;;;;;;;;;;5011860;28;21186;-54
2022/02/06 16:04:17;;;;;;;4.70;1.00;;;;;;;;;;5006266;28;20054;-56
2022/02/06 16:06:44;;;;;;;3.97;0.75;;;;;;;;;;5012458;28;20049;-54
2022/02/06 16:09:12;;;;;;;6.13;0.82;;;;;;;;;;5002096;28;20049;-59
2022/02/06 16:11:42;;;;;;;5.32;0.70;;;;;;;;;;4992907;28;20056;-58
2022/02/06 16:14:09;;;;;;;2.97;0.90;;;;;;;;;;4987979;28;20120;-59
2022/02/06 16:16:36;;;;;;;7.10;0.93;;;;;;;;;;4992394;28;20137;-60
2022/02/06 16:19:03;;;;;;;3.70;1.35;;;;;;;;;;4987444;28;20046;-57
2022/02/06 16:21:40;;;;;;;6.18;1.02;;;;;;;;;;4992968;28;20061;-58
2022/02/06 16:24:06;;;;;;;4.53;0.90;;;;;;;;;;4989110;28;20046;-59
2022/02/06 16:26:34;;;;;;;3.58;0.80;;;;;;;;;;5024911;28;20061;-57
2022/02/06 16:29:01;;;;;;;3.22;0.80;;;;;;;;;;5026486;28;20057;-53
2022/02/06 16:31:42;;;;;;;3.38;1.23;;;;;;;;;;5019737;28;20050;-55
2022/02/06 16:34:09;;;;;;;8.55;1.25;;;;;;;;;;5028442;28;20045;-57
2022/02/06 16:36:36;;;;;;;5.75;0.90;;;;;;;;;;5022252;28;20081;-54
2022/02/06 16:39:05;;;;;;;5.93;1.27;;;;;;;;;;5011705;28;20141;-54
2022/02/06 16:41:34;;;;;;;6.55;0.98;;;;;;;;;;5022246;28;20057;-56